createdAt,value
2022-10-27T00:02:39.657Z,12.16
2022-10-27T00:05:23.191Z,12.17
2022-10-27T00:08:06.585Z,12.18
2022-10-27T00:10:57.836Z,12.16
2022-10-27T00:13:42.098Z,12.18
2022-10-27T00:16:25.253Z,12.18
2022-10-27T00:19:08.103Z,12.18
2022-10-27T00:21:51.807Z,12.20
2022-10-27T00:24:34.710Z,12.22
2022-10-27T00:27:17.633Z,12.24
2022-10-27T00:30:01.856Z,12.26
2022-10-27T00:32:46.012Z,12.27
2022-10-27T00:35:28.852Z,12.30
2022-10-27T00:38:11.699Z,12.30
2022-10-27T00:40:54.611Z,12.33
2022-10-27T00:43:39.718Z,12.33
2022-10-27T00:46:32.539Z,12.32
2022-10-27T00:49:18.668Z,12.33
2022-10-27T00:52:05.356Z,12.32
2022-10-27T00:54:48.883Z,12.32
2022-10-27T00:57:33.560Z,12.31
2022-10-27T01:00:17.447Z,12.33
2022-10-27T01:03:01.776Z,12.33
2022-10-27T01:05:45.911Z,12.34
2022-10-27T01:08:28.808Z,12.35
2022-10-27T01:11:11.696Z,12.35
2022-10-27T01:13:54.868Z,12.34
2022-10-27T01:16:46.696Z,12.35
2022-10-27T01:19:52.541Z,12.35
2022-10-27T01:22:43.142Z,12.35
2022-10-27T01:26:07.410Z,12.34
2022-10-27T01:29:22.500Z,12.34
2022-10-27T01:32:25.615Z,12.35
2022-10-27T01:35:15.907Z,12.34
2022-10-27T01:38:07.534Z,12.33
2022-10-27T01:41:01.123Z,12.32
2022-10-27T01:43:46.711Z,12.32
2022-10-27T01:46:30.018Z,12.32
2022-10-27T01:49:14.258Z,12.32
2022-10-27T01:52:05.664Z,12.33
2022-10-27T01:54:48.539Z,12.31
2022-10-27T01:57:43.277Z,12.32
2022-10-27T02:00:26.182Z,12.33
2022-10-27T02:03:14.667Z,12.33
2022-10-27T02:06:08.615Z,12.34
2022-10-27T02:08:55.973Z,12.34
2022-10-27T02:11:42.120Z,12.31
2022-10-27T02:14:26.087Z,12.29
2022-10-27T02:17:12.273Z,12.27
2022-10-27T02:19:58.023Z,12.26
2022-10-27T02:22:46.220Z,12.24
2022-10-27T02:25:40.911Z,12.23
2022-10-27T02:28:29.254Z,12.22
2022-10-27T02:31:14.684Z,12.22
2022-10-27T02:33:59.033Z,12.21
2022-10-27T02:36:42.056Z,12.21
2022-10-27T02:39:26.483Z,12.21
2022-10-27T02:42:09.333Z,12.20
2022-10-27T02:44:52.267Z,12.20
2022-10-27T02:47:35.071Z,12.19
2022-10-27T02:50:17.949Z,12.19
2022-10-27T02:53:00.822Z,12.19
2022-10-27T02:55:45.096Z,12.20
2022-10-27T02:58:27.905Z,12.20
2022-10-27T03:01:10.988Z,12.20
2022-10-27T03:03:53.919Z,12.20
2022-10-27T03:06:36.787Z,12.22
2022-10-27T03:09:19.605Z,12.24
2022-10-27T03:12:03.993Z,12.26
2022-10-27T03:14:46.826Z,12.27
2022-10-27T03:17:29.707Z,12.26
2022-10-27T03:20:13.394Z,12.24
2022-10-27T03:22:56.428Z,12.21
2022-10-27T03:25:47.322Z,12.21
2022-10-27T03:28:35.377Z,12.20
2022-10-27T03:31:18.214Z,12.19
2022-10-27T03:34:01.154Z,12.20
2022-10-27T03:36:44.000Z,12.19
2022-10-27T03:39:27.031Z,12.17
2022-10-27T03:42:10.050Z,12.15
2022-10-27T03:44:54.231Z,12.13
2022-10-27T03:47:37.503Z,12.12
2022-10-27T03:50:20.295Z,12.12
2022-10-27T03:53:03.846Z,12.10
2022-10-27T03:55:49.026Z,12.12
2022-10-27T03:58:31.940Z,12.14
2022-10-27T04:01:16.392Z,12.14
2022-10-27T04:03:59.329Z,12.15
2022-10-27T04:06:42.279Z,12.18
2022-10-27T04:09:25.092Z,12.19
2022-10-27T04:12:08.348Z,12.18
2022-10-27T04:14:51.177Z,12.16
2022-10-27T04:17:35.441Z,12.14
2022-10-27T04:20:18.327Z,12.13
2022-10-27T04:23:01.401Z,12.11
2022-10-27T04:25:45.420Z,12.08
2022-10-27T04:28:28.295Z,12.06
2022-10-27T04:31:11.191Z,12.06
2022-10-27T04:33:55.493Z,12.04
2022-10-27T04:36:38.348Z,12.04
2022-10-27T04:39:21.227Z,12.03
2022-10-27T04:42:04.045Z,12.00
2022-10-27T04:44:47.474Z,11.98
2022-10-27T04:47:30.338Z,11.96
2022-10-27T04:50:15.642Z,11.95
2022-10-27T04:53:00.127Z,11.94
2022-10-27T04:55:42.988Z,11.93
2022-10-27T04:58:25.891Z,11.92
2022-10-27T05:01:09.541Z,11.90
2022-10-27T05:03:52.468Z,11.86
2022-10-27T05:06:36.701Z,11.84
2022-10-27T05:09:19.555Z,11.82
2022-10-27T05:12:02.482Z,11.79
2022-10-27T05:14:45.303Z,11.79
2022-10-27T05:17:28.214Z,11.76
2022-10-27T05:20:11.740Z,11.75
2022-10-27T05:22:56.064Z,11.74
2022-10-27T05:25:39.020Z,11.74
2022-10-27T05:28:22.509Z,11.75
2022-10-27T05:31:05.766Z,11.74
2022-10-27T05:33:48.718Z,11.72
2022-10-27T05:36:31.545Z,11.72
2022-10-27T05:39:15.809Z,11.70
2022-10-27T05:41:58.674Z,11.70
2022-10-27T05:44:41.557Z,11.69
2022-10-27T05:47:24.354Z,11.69
2022-10-27T05:50:08.036Z,11.68
2022-10-27T05:52:51.125Z,11.70
2022-10-27T05:55:36.493Z,11.71
2022-10-27T05:58:19.418Z,11.72
2022-10-27T06:01:02.305Z,11.74
2022-10-27T06:03:45.265Z,11.75
2022-10-27T06:06:28.396Z,11.78
2022-10-27T06:09:11.262Z,11.79
2022-10-27T06:11:55.578Z,11.79
2022-10-27T06:14:38.464Z,11.82
2022-10-27T06:17:21.344Z,11.84
2022-10-27T06:20:04.819Z,11.85
2022-10-27T06:22:48.323Z,11.85
2022-10-27T06:25:31.316Z,11.84
2022-10-27T06:28:15.616Z,11.85
2022-10-27T06:30:58.947Z,11.86
2022-10-27T06:33:41.800Z,11.88
2022-10-27T06:36:25.276Z,11.88
2022-10-27T06:39:08.113Z,11.90
2022-10-27T06:41:51.005Z,11.92
2022-10-27T06:44:40.203Z,11.94
2022-10-27T06:47:23.070Z,11.97
2022-10-27T06:50:07.470Z,11.98
2022-10-27T06:52:51.525Z,11.98
2022-10-27T06:55:34.946Z,12.04
2022-10-27T06:58:17.861Z,12.06
2022-10-27T07:01:02.388Z,12.09
2022-10-27T07:03:45.590Z,12.13
2022-10-27T07:06:28.410Z,12.16
2022-10-27T07:09:11.438Z,12.19
2022-10-27T07:11:54.310Z,12.22
2022-10-27T07:14:37.185Z,12.24
2022-10-27T07:20:10.154Z,12.31
2022-10-27T07:22:53.378Z,12.34
2022-10-27T07:25:36.761Z,12.36
2022-10-27T07:28:19.697Z,12.39
2022-10-27T07:31:02.539Z,12.45
2022-10-27T07:33:46.789Z,12.49
2022-10-27T07:36:29.627Z,12.56
2022-10-27T07:39:12.490Z,12.62
2022-10-27T07:41:55.338Z,12.68
2022-10-27T07:44:38.275Z,12.73
2022-10-27T07:47:21.142Z,12.77
2022-10-27T07:50:06.553Z,12.84
2022-10-27T07:52:51.605Z,12.91
2022-10-27T07:55:36.656Z,12.98
2022-10-27T07:58:19.770Z,13.07
2022-10-27T08:01:04.320Z,13.19
2022-10-27T08:03:51.116Z,13.33
2022-10-27T08:06:35.641Z,13.49
2022-10-27T08:09:19.979Z,13.64
2022-10-27T08:12:03.050Z,13.78
2022-10-27T08:14:45.873Z,13.94
2022-10-27T08:17:30.186Z,14.07
2022-10-27T08:20:13.124Z,14.19
2022-10-27T08:22:58.442Z,14.33
2022-10-27T08:25:42.041Z,14.43
2022-10-27T08:28:25.168Z,14.54
2022-10-27T08:31:08.645Z,14.66
2022-10-27T08:33:51.462Z,14.81
2022-10-27T08:36:39.139Z,15.01
2022-10-27T08:39:23.327Z,15.15
2022-10-27T08:42:13.598Z,15.25
2022-10-27T08:45:02.676Z,15.32
2022-10-27T08:47:45.746Z,15.41
2022-10-27T08:50:31.564Z,15.50
2022-10-27T08:53:19.768Z,15.67
2022-10-27T08:56:10.338Z,15.82
2022-10-27T08:58:53.354Z,15.84
2022-10-27T09:01:46.001Z,15.99
2022-10-27T09:04:48.708Z,16.16
2022-10-27T09:07:40.318Z,16.31
2022-10-27T09:10:41.240Z,16.43
2022-10-27T09:13:43.262Z,16.58
2022-10-27T09:16:34.197Z,16.70
2022-10-27T09:19:23.696Z,16.78
2022-10-27T09:22:13.431Z,16.95
2022-10-27T09:25:00.740Z,17.15
2022-10-27T09:27:45.149Z,17.33
2022-10-27T09:30:36.110Z,17.50
2022-10-27T09:33:23.856Z,17.34
2022-10-27T09:36:15.341Z,17.50
2022-10-27T09:38:58.256Z,17.55
2022-10-27T09:41:41.318Z,17.64
2022-10-27T09:44:26.759Z,17.64
2022-10-27T09:47:11.477Z,17.85
2022-10-27T09:49:54.345Z,17.99
2022-10-27T09:52:42.718Z,18.12
2022-10-27T09:55:49.971Z,18.20
2022-10-27T09:58:33.043Z,18.28
2022-10-27T10:01:15.951Z,18.18
2022-10-27T10:04:10.383Z,18.18
2022-10-27T10:06:57.163Z,18.40
2022-10-27T10:09:40.501Z,18.60
2022-10-27T10:12:25.048Z,18.79
2022-10-27T10:15:21.083Z,18.89
2022-10-27T10:18:05.961Z,18.94
2022-10-27T10:20:57.710Z,18.93
2022-10-27T10:23:53.314Z,19.03
2022-10-27T10:26:36.229Z,19.12
2022-10-27T10:29:28.272Z,19.25
2022-10-27T10:32:14.987Z,19.37
2022-10-27T10:35:00.638Z,19.52
2022-10-27T10:37:46.657Z,19.70
2022-10-27T10:40:30.802Z,19.81
2022-10-27T10:43:15.994Z,19.93
2022-10-27T10:45:59.693Z,20.06
2022-10-27T10:48:47.345Z,20.16
2022-10-27T10:51:32.862Z,20.13
2022-10-27T10:54:22.759Z,20.17
2022-10-27T10:57:06.202Z,19.87
2022-10-27T10:59:53.517Z,20.02
2022-10-27T11:02:36.417Z,20.17
2022-10-27T11:08:21.566Z,20.16
2022-10-27T11:11:12.344Z,20.22
2022-10-27T11:14:00.188Z,20.37
2022-10-27T11:16:48.395Z,20.41
2022-10-27T11:19:38.980Z,20.28
2022-10-27T11:22:23.168Z,20.46
2022-10-27T11:25:08.674Z,20.53
2022-10-27T11:28:04.095Z,20.49
2022-10-27T11:30:54.591Z,20.62
2022-10-27T11:33:47.332Z,20.79
2022-10-27T11:36:37.508Z,20.97
2022-10-27T11:39:26.480Z,20.88
2022-10-27T11:42:19.693Z,20.97
2022-10-27T11:45:12.512Z,20.98
2022-10-27T11:48:00.769Z,20.95
2022-10-27T11:50:49.942Z,21.12
2022-10-27T11:53:36.292Z,21.24
2022-10-27T11:56:36.560Z,21.48
2022-10-27T11:59:23.969Z,21.64
2022-10-27T12:02:27.374Z,21.59
2022-10-27T12:05:14.027Z,21.63
2022-10-27T12:08:08.811Z,21.63
2022-10-27T12:11:06.475Z,21.44
2022-10-27T12:13:56.824Z,21.45
2022-10-27T12:16:46.429Z,21.45
2022-10-27T12:19:35.783Z,21.24
2022-10-27T12:22:23.923Z,21.45
2022-10-27T12:25:12.717Z,21.60
2022-10-27T12:27:58.385Z,21.64
2022-10-27T12:30:46.058Z,21.59
2022-10-27T12:33:35.522Z,21.70
2022-10-27T12:36:26.717Z,21.77
2022-10-27T12:39:20.579Z,21.91
2022-10-27T12:42:10.754Z,22.08
2022-10-27T12:45:02.349Z,21.95
2022-10-27T12:47:56.654Z,21.82
2022-10-27T12:50:45.522Z,22.03
2022-10-27T12:53:43.784Z,21.97
2022-10-27T12:56:32.209Z,22.09
2022-10-27T12:59:25.290Z,22.25
2022-10-27T13:02:12.462Z,22.30
2022-10-27T13:05:33.759Z,22.33
2022-10-27T13:08:42.701Z,22.39
2022-10-27T13:11:52.441Z,22.39
2022-10-27T13:15:11.144Z,22.42
2022-10-27T13:18:03.111Z,22.49
2022-10-27T13:20:53.492Z,22.51
2022-10-27T13:23:46.181Z,22.41
2022-10-27T13:26:34.604Z,22.33
2022-10-27T13:29:29.480Z,22.34
2022-10-27T13:32:39.573Z,22.31
2022-10-27T13:35:33.945Z,22.21
2022-10-27T13:38:26.739Z,22.17
2022-10-27T13:41:10.970Z,22.21
2022-10-27T13:43:59.675Z,22.21
2022-10-27T13:47:16.194Z,22.17
2022-10-27T13:50:00.645Z,22.16
2022-10-27T13:52:43.489Z,22.12
2022-10-27T13:55:34.918Z,22.07
2022-10-27T13:58:33.590Z,22.01
2022-10-27T14:01:25.705Z,21.94
2022-10-27T14:04:40.167Z,21.77
2022-10-27T14:07:26.299Z,21.54
2022-10-27T14:10:14.613Z,21.25
2022-10-27T14:12:59.191Z,21.20
2022-10-27T14:15:43.490Z,21.17
2022-10-27T14:18:30.753Z,21.01
2022-10-27T14:21:19.147Z,20.94
2022-10-27T14:24:08.265Z,20.85
2022-10-27T14:26:58.298Z,20.79
2022-10-27T14:29:41.163Z,20.63
2022-10-27T14:32:27.577Z,20.59
2022-10-27T14:35:22.562Z,20.47
2022-10-27T14:38:05.481Z,20.43
2022-10-27T14:40:49.168Z,20.41
2022-10-27T14:43:35.372Z,20.40
2022-10-27T14:46:21.951Z,20.41
2022-10-27T14:49:08.314Z,20.43
2022-10-27T14:51:51.405Z,20.42
2022-10-27T14:54:35.024Z,20.43
2022-10-27T14:57:38.744Z,20.45
2022-10-27T15:00:24.589Z,20.51
2022-10-27T15:03:09.975Z,20.49
2022-10-27T15:05:54.203Z,20.45
2022-10-27T15:08:37.095Z,20.38
2022-10-27T15:11:23.532Z,20.30
2022-10-27T15:14:06.505Z,20.17
2022-10-27T15:16:49.503Z,20.07
2022-10-27T15:19:32.496Z,19.99
2022-10-27T15:22:18.845Z,19.94
2022-10-27T15:25:02.490Z,19.83
2022-10-27T15:27:46.275Z,19.67
2022-10-27T15:30:29.530Z,19.49
2022-10-27T15:33:33.611Z,19.27
2022-10-27T15:36:24.326Z,19.05
2022-10-27T15:39:12.326Z,18.84
2022-10-27T15:41:55.261Z,18.73
2022-10-27T15:44:38.239Z,18.58
2022-10-27T15:47:42.254Z,18.41
2022-10-27T15:50:27.454Z,18.23
2022-10-27T15:53:16.625Z,18.08
2022-10-27T15:56:03.227Z,17.97
2022-10-27T15:59:09.816Z,17.86
2022-10-27T16:01:56.227Z,17.77
2022-10-27T16:04:40.942Z,17.69
2022-10-27T16:07:33.791Z,17.63
2022-10-27T16:10:16.703Z,17.54
2022-10-27T16:13:00.889Z,17.47
2022-10-27T16:15:45.940Z,17.43
2022-10-27T16:18:28.836Z,17.38
2022-10-27T16:21:20.310Z,17.34
2022-10-27T16:24:13.820Z,17.28
2022-10-27T16:26:56.872Z,17.21
2022-10-27T16:29:41.795Z,17.18
2022-10-27T16:32:24.661Z,17.14
2022-10-27T16:35:08.003Z,17.10
2022-10-27T16:37:50.871Z,17.06
2022-10-27T16:40:38.193Z,17.02
2022-10-27T16:43:27.170Z,16.97
2022-10-27T16:46:11.381Z,16.93
2022-10-27T16:48:54.363Z,16.87
2022-10-27T16:51:37.190Z,16.83
2022-10-27T16:54:20.141Z,16.78
2022-10-27T16:57:03.122Z,16.72
2022-10-27T16:59:45.969Z,16.68
2022-10-27T17:02:30.327Z,16.63
2022-10-27T17:05:13.186Z,16.60
2022-10-27T17:07:56.102Z,16.54
2022-10-27T17:10:39.024Z,16.50
2022-10-27T17:13:22.321Z,16.44
2022-10-27T17:16:06.578Z,16.41
2022-10-27T17:18:50.814Z,16.34
2022-10-27T17:21:35.111Z,16.30
2022-10-27T17:24:18.019Z,16.23
2022-10-27T17:27:00.942Z,16.17
2022-10-27T17:29:43.825Z,16.13
2022-10-27T17:32:26.698Z,16.12
2022-10-27T17:35:11.163Z,16.09
2022-10-27T17:37:54.250Z,16.09
2022-10-27T17:40:38.866Z,16.07
2022-10-27T17:43:22.119Z,16.04
2022-10-27T17:46:06.895Z,16.02
2022-10-27T17:48:50.677Z,15.99
2022-10-27T17:51:35.080Z,15.96
2022-10-27T17:54:18.051Z,15.92
2022-10-27T17:57:00.917Z,15.90
2022-10-27T17:59:44.082Z,15.87
2022-10-27T18:02:27.551Z,15.84
2022-10-27T18:05:10.679Z,15.84
2022-10-27T18:07:55.059Z,15.83
2022-10-27T18:10:38.330Z,15.80
2022-10-27T18:13:21.224Z,15.79
2022-10-27T18:16:08.413Z,15.77
2022-10-27T18:18:52.285Z,15.73
2022-10-27T18:21:37.695Z,15.71
2022-10-27T18:24:22.458Z,15.70
2022-10-27T18:27:05.253Z,15.67
2022-10-27T18:29:48.193Z,15.65
2022-10-27T18:32:31.016Z,15.61
2022-10-27T18:35:13.964Z,15.58
2022-10-27T18:37:56.872Z,15.54
2022-10-27T18:40:41.108Z,15.52
2022-10-27T18:43:24.128Z,15.49
2022-10-27T18:46:08.959Z,15.47
2022-10-27T18:48:52.467Z,15.47
2022-10-27T18:51:37.369Z,15.45
2022-10-27T18:54:20.759Z,15.42
2022-10-27T18:57:05.075Z,15.40
2022-10-27T18:59:47.952Z,15.38
2022-10-27T19:02:30.883Z,15.39
2022-10-27T19:05:13.877Z,15.37
2022-10-27T19:07:56.751Z,15.35
2022-10-27T19:10:39.761Z,15.31
2022-10-27T19:13:24.046Z,15.29
2022-10-27T19:16:08.761Z,15.27
2022-10-27T19:18:51.659Z,15.27
2022-10-27T19:21:34.963Z,15.24
2022-10-27T19:24:18.057Z,15.23
2022-10-27T19:27:00.997Z,15.21
2022-10-27T19:29:46.175Z,15.19
2022-10-27T19:32:29.053Z,15.17
2022-10-27T19:35:12.008Z,15.16
2022-10-27T19:37:55.281Z,15.14
2022-10-27T19:40:38.449Z,15.11
2022-10-27T19:43:23.618Z,15.11
2022-10-27T19:46:08.914Z,15.09
2022-10-27T19:48:52.514Z,15.07
2022-10-27T19:51:37.153Z,15.07
2022-10-27T19:54:21.219Z,15.03
2022-10-27T19:57:04.167Z,15.03
2022-10-27T19:59:47.105Z,15.01
2022-10-27T20:02:32.485Z,15.01
2022-10-27T20:05:15.623Z,14.99
2022-10-27T20:07:58.796Z,14.97
2022-10-27T20:10:41.635Z,14.96
2022-10-27T20:13:24.531Z,14.93
2022-10-27T20:16:08.104Z,14.92
2022-10-27T20:18:52.812Z,14.90
2022-10-27T20:21:35.742Z,14.88
2022-10-27T20:24:20.449Z,14.88
2022-10-27T20:27:03.129Z,14.86
2022-10-27T20:29:46.031Z,14.86
2022-10-27T20:32:32.127Z,14.84
2022-10-27T20:35:16.485Z,14.84
2022-10-27T20:37:59.374Z,14.83
2022-10-27T20:40:43.023Z,14.81
2022-10-27T20:43:26.002Z,14.80
2022-10-27T20:46:09.751Z,14.81
2022-10-27T20:48:53.248Z,14.81
2022-10-27T20:51:37.599Z,14.78
2022-10-27T20:54:20.462Z,14.77
2022-10-27T20:57:03.422Z,14.74
2022-10-27T20:59:46.276Z,14.74
2022-10-27T21:02:29.182Z,14.73
2022-10-27T21:05:12.144Z,14.72
2022-10-27T21:07:56.379Z,14.70
2022-10-27T21:10:41.853Z,14.69
2022-10-27T21:13:24.819Z,14.68
2022-10-27T21:16:08.242Z,14.66
2022-10-27T21:18:52.519Z,14.64
2022-10-27T21:21:35.816Z,14.63
2022-10-27T21:24:20.022Z,14.62
2022-10-27T21:27:02.916Z,14.60
2022-10-27T21:29:45.857Z,14.58
2022-10-27T21:32:28.733Z,14.56
2022-10-27T21:35:11.612Z,14.54
2022-10-27T21:37:55.693Z,14.53
2022-10-27T21:40:39.875Z,14.52
2022-10-27T21:43:22.759Z,14.52
2022-10-27T21:46:06.007Z,14.52
2022-10-27T21:48:49.369Z,14.51
2022-10-27T21:51:32.533Z,14.51
2022-10-27T21:54:16.235Z,14.50
2022-10-27T21:57:00.475Z,14.50
2022-10-27T21:59:43.334Z,14.48
2022-10-27T22:02:26.271Z,14.49
2022-10-27T22:05:09.799Z,14.47
2022-10-27T22:07:52.975Z,14.47
2022-10-27T22:10:36.213Z,14.45
2022-10-27T22:13:21.283Z,14.45
2022-10-27T22:16:04.883Z,14.42
2022-10-27T22:18:48.604Z,14.44
2022-10-27T22:21:34.414Z,14.44
2022-10-27T22:24:17.854Z,14.46
2022-10-27T22:27:00.772Z,14.44
2022-10-27T22:29:45.190Z,14.42
2022-10-27T22:32:29.706Z,14.41
2022-10-27T22:35:12.708Z,14.42
2022-10-27T22:37:55.794Z,14.43
2022-10-27T22:40:38.895Z,14.44
2022-10-27T22:43:21.810Z,14.45
2022-10-27T22:46:07.607Z,14.46
2022-10-27T22:48:50.911Z,14.46
2022-10-27T22:51:33.833Z,14.47
2022-10-27T22:54:16.748Z,14.48
2022-10-27T22:56:59.618Z,14.48
2022-10-27T22:59:42.518Z,14.50
2022-10-27T23:02:26.863Z,14.50
2022-10-27T23:05:09.805Z,14.51
2022-10-27T23:07:52.676Z,14.51
2022-10-27T23:10:35.502Z,14.50
2022-10-27T23:13:18.380Z,14.50
2022-10-27T23:16:02.852Z,14.49
2022-10-27T23:18:47.185Z,14.47
2022-10-27T23:21:30.815Z,14.46
2022-10-27T23:24:15.257Z,14.41
2022-10-27T23:26:58.079Z,14.36
2022-10-27T23:29:40.994Z,14.35
2022-10-27T23:32:23.961Z,14.34
2022-10-27T23:35:09.712Z,14.32
2022-10-27T23:37:53.106Z,14.31
2022-10-27T23:40:36.318Z,14.28
2022-10-27T23:43:19.262Z,14.26
2022-10-27T23:46:03.494Z,14.27
2022-10-27T23:48:46.661Z,14.27
2022-10-27T23:51:30.917Z,14.28
2022-10-27T23:54:13.735Z,14.29
2022-10-27T23:56:56.679Z,14.30
2022-10-27T23:59:41.100Z,14.30
